Mission Home, Virginia
Current Conditions -  °F | °C
As of 11:53 PM on Wednesday 22 Oct 2014 (Local Time) from KCHO Reporting Station
Clear Clear  
Wind Chill: 53°   Ceiling: Unl
Heat Index: 53°   Visibility: 10mi
Dew Point: 39°   Wind: 7mph
Humidity: 59%   Direction: 320°NW
Pressure: 29.99"   Gusts: NA
Location:  38.2046°N, 78.6094°W
Report Text: KCHO 230353Z AUTO 32006KT 10SM CLR 12/04 A2999 RMK AO2 SLP154 T01170039
Loading
Personal Weather Stations






























Interactive Weather Map
Tropical Storm Tracking
New forecast layout! Learn more

10-Day Weather Forecast

Advertisements
Track Severe Weather on mobile